sensor_id;sensor_type;location;lat;lon;timestamp;P1;durP1;ratioP1;P2;durP2;ratioP2
19969;SDS011;10146;47.754;9.566;2023-11-21T00:00:13;8.05;;;1.75;;
19969;SDS011;10146;47.754;9.566;2023-11-21T00:02:42;7.75;;;1.67;;
19969;SDS011;10146;47.754;9.566;2023-11-21T00:05:09;3.97;;;1.15;;
19969;SDS011;10146;47.754;9.566;2023-11-21T00:07:36;7.72;;;1.95;;
19969;SDS011;10146;47.754;9.566;2023-11-21T00:10:02;6.68;;;1.90;;
19969;SDS011;10146;47.754;9.566;2023-11-21T00:12:30;6.35;;;1.63;;
19969;SDS011;10146;47.754;9.566;2023-11-21T00:14:56;5.88;;;1.85;;
19969;SDS011;10146;47.754;9.566;2023-11-21T00:17:22;5.70;;;1.58;;
19969;SDS011;10146;47.754;9.566;2023-11-21T00:19:48;6.60;;;1.88;;
19969;SDS011;10146;47.754;9.566;2023-11-21T00:22:14;5.65;;;2.08;;
19969;SDS011;10146;47.754;9.566;2023-11-21T00:24:41;6.82;;;1.60;;
19969;SDS011;10146;47.754;9.566;2023-11-21T00:27:06;6.30;;;1.48;;
19969;SDS011;10146;47.754;9.566;2023-11-21T00:29:32;10.90;;;2.00;;
19969;SDS011;10146;47.754;9.566;2023-11-21T00:31:57;5.20;;;1.50;;
19969;SDS011;10146;47.754;9.566;2023-11-21T00:34:23;8.35;;;1.80;;
19969;SDS011;10146;47.754;9.566;2023-11-21T00:36:49;8.95;;;2.05;;
19969;SDS011;10146;47.754;9.566;2023-11-21T00:39:14;4.47;;;1.42;;
19969;SDS011;10146;47.754;9.566;2023-11-21T00:41:40;4.95;;;1.45;;
19969;SDS011;10146;47.754;9.566;2023-11-21T00:44:07;7.57;;;1.80;;
19969;SDS011;10146;47.754;9.566;2023-11-21T00:46:32;2.92;;;1.27;;
19969;SDS011;10146;47.754;9.566;2023-11-21T00:48:58;6.05;;;1.80;;
19969;SDS011;10146;47.754;9.566;2023-11-21T00:51:24;4.72;;;1.52;;
19969;SDS011;10146;47.754;9.566;2023-11-21T00:53:49;4.07;;;1.50;;
19969;SDS011;10146;47.754;9.566;2023-11-21T00:56:15;6.22;;;1.60;;
19969;SDS011;10146;47.754;9.566;2023-11-21T00:58:41;8.50;;;1.48;;
19969;SDS011;10146;47.754;9.566;2023-11-21T01:01:14;4.80;;;1.90;;
19969;SDS011;10146;47.754;9.566;2023-11-21T01:03:40;7.88;;;1.70;;
19969;SDS011;10146;47.754;9.566;2023-11-21T01:06:05;9.52;;;1.70;;
19969;SDS011;10146;47.754;9.566;2023-11-21T01:08:32;4.57;;;1.70;;
19969;SDS011;10146;47.754;9.566;2023-11-21T01:10:58;4.95;;;1.83;;
19969;SDS011;10146;47.754;9.566;2023-11-21T01:13:24;7.88;;;1.90;;
19969;SDS011;10146;47.754;9.566;2023-11-21T01:15:54;10.75;;;1.80;;
19969;SDS011;10146;47.754;9.566;2023-11-21T01:18:20;4.78;;;1.60;;
19969;SDS011;10146;47.754;9.566;2023-11-21T01:20:46;5.57;;;2.00;;
19969;SDS011;10146;47.754;9.566;2023-11-21T01:23:12;5.22;;;1.85;;
19969;SDS011;10146;47.754;9.566;2023-11-21T01:25:38;8.38;;;2.08;;
19969;SDS011;10146;47.754;9.566;2023-11-21T01:28:03;6.90;;;1.98;;
19969;SDS011;10146;47.754;9.566;2023-11-21T01:30:29;6.57;;;1.75;;
19969;SDS011;10146;47.754;9.566;2023-11-21T01:32:55;5.80;;;1.63;;
19969;SDS011;10146;47.754;9.566;2023-11-21T01:35:21;5.00;;;1.75;;
19969;SDS011;10146;47.754;9.566;2023-11-21T01:37:47;6.38;;;1.70;;
19969;SDS011;10146;47.754;9.566;2023-11-21T01:40:13;3.83;;;1.30;;
19969;SDS011;10146;47.754;9.566;2023-11-21T01:42:39;6.40;;;1.98;;
19969;SDS011;10146;47.754;9.566;2023-11-21T01:45:05;8.48;;;1.95;;
19969;SDS011;10146;47.754;9.566;2023-11-21T01:47:33;6.28;;;1.73;;
19969;SDS011;10146;47.754;9.566;2023-11-21T01:50:00;4.65;;;1.40;;
19969;SDS011;10146;47.754;9.566;2023-11-21T01:52:29;6.32;;;1.55;;
19969;SDS011;10146;47.754;9.566;2023-11-21T01:54:55;5.53;;;1.50;;
19969;SDS011;10146;47.754;9.566;2023-11-21T01:57:21;7.57;;;1.83;;
19969;SDS011;10146;47.754;9.566;2023-11-21T01:59:47;7.57;;;1.63;;
19969;SDS011;10146;47.754;9.566;2023-11-21T02:02:15;5.80;;;1.85;;
19969;SDS011;10146;47.754;9.566;2023-11-21T02:04:40;6.50;;;1.90;;
19969;SDS011;10146;47.754;9.566;2023-11-21T02:07:06;7.53;;;2.10;;
19969;SDS011;10146;47.754;9.566;2023-11-21T02:09:32;6.32;;;1.55;;
19969;SDS011;10146;47.754;9.566;2023-11-21T02:12:03;6.53;;;1.77;;
19969;SDS011;10146;47.754;9.566;2023-11-21T02:14:30;6.22;;;1.73;;
19969;SDS011;10146;47.754;9.566;2023-11-21T02:16:56;8.45;;;2.03;;
19969;SDS011;10146;47.754;9.566;2023-11-21T02:19:26;6.15;;;1.88;;
19969;SDS011;10146;47.754;9.566;2023-11-21T02:21:52;5.47;;;1.90;;
19969;SDS011;10146;47.754;9.566;2023-11-21T02:24:21;6.82;;;1.80;;
19969;SDS011;10146;47.754;9.566;2023-11-21T02:26:47;5.55;;;1.83;;
19969;SDS011;10146;47.754;9.566;2023-11-21T02:29:14;4.60;;;2.00;;
19969;SDS011;10146;47.754;9.566;2023-11-21T02:31:42;6.70;;;2.30;;
19969;SDS011;10146;47.754;9.566;2023-11-21T02:34:16;7.72;;;1.90;;
19969;SDS011;10146;47.754;9.566;2023-11-21T02:36:43;4.70;;;1.85;;
19969;SDS011;10146;47.754;9.566;2023-11-21T02:39:10;4.82;;;1.60;;
19969;SDS011;10146;47.754;9.566;2023-11-21T02:41:36;7.53;;;1.80;;
19969;SDS011;10146;47.754;9.566;2023-11-21T02:44:04;6.22;;;1.60;;
19969;SDS011;10146;47.754;9.566;2023-11-21T02:46:31;6.78;;;2.30;;
19969;SDS011;10146;47.754;9.566;2023-11-21T02:48:58;4.50;;;1.77;;
19969;SDS011;10146;47.754;9.566;2023-11-21T02:51:27;7.95;;;2.20;;
19969;SDS011;10146;47.754;9.566;2023-11-21T02:53:53;6.60;;;2.22;;
19969;SDS011;10146;47.754;9.566;2023-11-21T02:56:19;6.38;;;1.65;;
19969;SDS011;10146;47.754;9.566;2023-11-21T02:58:45;7.97;;;1.50;;
19969;SDS011;10146;47.754;9.566;2023-11-21T03:01:10;3.83;;;1.50;;
19969;SDS011;10146;47.754;9.566;2023-11-21T03:03:37;6.35;;;2.03;;
19969;SDS011;10146;47.754;9.566;2023-11-21T03:06:05;6.60;;;1.55;;
19969;SDS011;10146;47.754;9.566;2023-11-21T03:08:31;3.85;;;1.40;;
19969;SDS011;10146;47.754;9.566;2023-11-21T03:10:57;5.82;;;1.60;;
19969;SDS011;10146;47.754;9.566;2023-11-21T03:13:23;3.85;;;0.90;;
19969;SDS011;10146;47.754;9.566;2023-11-21T03:15:48;3.47;;;0.82;;
19969;SDS011;10146;47.754;9.566;2023-11-21T03:18:14;2.13;;;0.70;;
19969;SDS011;10146;47.754;9.566;2023-11-21T03:20:39;3.03;;;0.90;;
19969;SDS011;10146;47.754;9.566;2023-11-21T03:23:05;2.80;;;1.17;;
19969;SDS011;10146;47.754;9.566;2023-11-21T03:25:30;2.90;;;0.98;;
19969;SDS011;10146;47.754;9.566;2023-11-21T03:27:56;2.33;;;0.90;;
19969;SDS011;10146;47.754;9.566;2023-11-21T03:30:21;2.28;;;0.82;;
19969;SDS011;10146;47.754;9.566;2023-11-21T03:32:47;0.90;;;0.65;;
19969;SDS011;10146;47.754;9.566;2023-11-21T03:35:13;2.13;;;0.90;;
19969;SDS011;10146;47.754;9.566;2023-11-21T03:37:38;2.30;;;0.70;;
19969;SDS011;10146;47.754;9.566;2023-11-21T03:40:06;4.45;;;1.20;;
19969;SDS011;10146;47.754;9.566;2023-11-21T03:42:34;4.40;;;0.80;;
19969;SDS011;10146;47.754;9.566;2023-11-21T03:45:00;2.42;;;0.68;;
19969;SDS011;10146;47.754;9.566;2023-11-21T03:47:28;2.50;;;0.98;;
19969;SDS011;10146;47.754;9.566;2023-11-21T03:49:54;1.85;;;0.80;;
19969;SDS011;10146;47.754;9.566;2023-11-21T03:52:19;2.83;;;1.15;;
19969;SDS011;10146;47.754;9.566;2023-11-21T03:54:45;3.08;;;0.68;;
19969;SDS011;10146;47.754;9.566;2023-11-21T03:57:11;2.90;;;0.70;;
19969;SDS011;10146;47.754;9.566;2023-11-21T03:59:39;3.58;;;0.93;;
19969;SDS011;10146;47.754;9.566;2023-11-21T04:02:06;1.85;;;0.85;;
19969;SDS011;10146;47.754;9.566;2023-11-21T04:04:32;4.43;;;0.90;;
19969;SDS011;10146;47.754;9.566;2023-11-21T04:06:58;1.92;;;1.05;;
19969;SDS011;10146;47.754;9.566;2023-11-21T04:09:24;2.53;;;0.70;;
19969;SDS011;10146;47.754;9.566;2023-11-21T04:11:50;1.50;;;0.88;;
19969;SDS011;10146;47.754;9.566;2023-11-21T04:14:16;2.58;;;1.02;;
19969;SDS011;10146;47.754;9.566;2023-11-21T04:16:42;1.75;;;1.13;;
19969;SDS011;10146;47.754;9.566;2023-11-21T04:19:08;1.65;;;0.90;;
19969;SDS011;10146;47.754;9.566;2023-11-21T04:21:37;3.13;;;1.15;;
19969;SDS011;10146;47.754;9.566;2023-11-21T04:24:03;3.45;;;1.20;;
19969;SDS011;10146;47.754;9.566;2023-11-21T04:26:29;2.92;;;0.85;;
19969;SDS011;10146;47.754;9.566;2023-11-21T04:28:54;4.28;;;1.13;;
19969;SDS011;10146;47.754;9.566;2023-11-21T04:31:20;4.53;;;1.45;;
19969;SDS011;10146;47.754;9.566;2023-11-21T04:33:46;3.67;;;1.02;;
19969;SDS011;10146;47.754;9.566;2023-11-21T04:36:11;3.13;;;1.20;;
19969;SDS011;10146;47.754;9.566;2023-11-21T04:38:37;2.53;;;1.40;;
19969;SDS011;10146;47.754;9.566;2023-11-21T04:41:03;2.45;;;1.63;;
19969;SDS011;10146;47.754;9.566;2023-11-21T04:43:28;7.53;;;3.03;;
19969;SDS011;10146;47.754;9.566;2023-11-21T04:45:54;10.43;;;4.88;;
19969;SDS011;10146;47.754;9.566;2023-11-21T04:48:20;5.93;;;3.00;;
19969;SDS011;10146;47.754;9.566;2023-11-21T04:50:46;5.47;;;3.90;;
19969;SDS011;10146;47.754;9.566;2023-11-21T04:53:11;5.22;;;2.88;;
19969;SDS011;10146;47.754;9.566;2023-11-21T04:55:40;10.50;;;5.93;;
19969;SDS011;10146;47.754;9.566;2023-11-21T04:58:06;12.85;;;8.20;;
19969;SDS011;10146;47.754;9.566;2023-11-21T05:00:33;15.50;;;8.82;;
19969;SDS011;10146;47.754;9.566;2023-11-21T05:02:59;15.82;;;8.82;;
19969;SDS011;10146;47.754;9.566;2023-11-21T05:05:26;9.38;;;4.90;;
19969;SDS011;10146;47.754;9.566;2023-11-21T05:07:52;11.20;;;7.10;;
19969;SDS011;10146;47.754;9.566;2023-11-21T05:10:18;6.30;;;3.25;;
19969;SDS011;10146;47.754;9.566;2023-11-21T05:12:44;12.32;;;8.25;;
19969;SDS011;10146;47.754;9.566;2023-11-21T05:15:13;14.48;;;9.77;;
19969;SDS011;10146;47.754;9.566;2023-11-21T05:17:43;9.57;;;6.10;;
19969;SDS011;10146;47.754;9.566;2023-11-21T05:20:10;8.10;;;4.90;;
19969;SDS011;10146;47.754;9.566;2023-11-21T05:22:38;4.68;;;3.13;;
19969;SDS011;10146;47.754;9.566;2023-11-21T05:25:03;5.63;;;2.42;;
19969;SDS011;10146;47.754;9.566;2023-11-21T05:27:30;4.30;;;1.95;;
19969;SDS011;10146;47.754;9.566;2023-11-21T05:29:56;3.28;;;1.63;;
19969;SDS011;10146;47.754;9.566;2023-11-21T05:32:22;5.20;;;2.00;;
19969;SDS011;10146;47.754;9.566;2023-11-21T05:34:52;5.32;;;1.90;;
19969;SDS011;10146;47.754;9.566;2023-11-21T05:37:17;2.47;;;1.77;;
19969;SDS011;10146;47.754;9.566;2023-11-21T05:39:43;4.30;;;2.20;;
19969;SDS011;10146;47.754;9.566;2023-11-21T05:42:08;3.60;;;1.67;;
19969;SDS011;10146;47.754;9.566;2023-11-21T05:44:36;3.15;;;1.70;;
19969;SDS011;10146;47.754;9.566;2023-11-21T05:47:02;3.45;;;1.50;;
19969;SDS011;10146;47.754;9.566;2023-11-21T05:49:28;4.05;;;1.90;;
19969;SDS011;10146;47.754;9.566;2023-11-21T05:51:54;3.28;;;1.80;;
19969;SDS011;10146;47.754;9.566;2023-11-21T05:54:20;2.75;;;1.42;;
19969;SDS011;10146;47.754;9.566;2023-11-21T05:56:47;3.75;;;1.52;;
19969;SDS011;10146;47.754;9.566;2023-11-21T05:59:12;3.88;;;1.48;;
19969;SDS011;10146;47.754;9.566;2023-11-21T06:01:38;3.88;;;1.30;;
19969;SDS011;10146;47.754;9.566;2023-11-21T06:04:04;4.65;;;1.60;;
19969;SDS011;10146;47.754;9.566;2023-11-21T06:06:30;3.35;;;1.40;;
19969;SDS011;10146;47.754;9.566;2023-11-21T06:08:56;3.25;;;1.33;;
19969;SDS011;10146;47.754;9.566;2023-11-21T06:11:22;4.00;;;1.20;;
19969;SDS011;10146;47.754;9.566;2023-11-21T06:13:49;2.92;;;1.20;;
19969;SDS011;10146;47.754;9.566;2023-11-21T06:16:15;2.63;;;1.23;;
19969;SDS011;10146;47.754;9.566;2023-11-21T06:18:43;1.90;;;1.33;;
19969;SDS011;10146;47.754;9.566;2023-11-21T06:21:09;2.03;;;1.38;;
19969;SDS011;10146;47.754;9.566;2023-11-21T06:23:35;2.88;;;1.10;;
19969;SDS011;10146;47.754;9.566;2023-11-21T06:26:01;2.88;;;1.13;;
19969;SDS011;10146;47.754;9.566;2023-11-21T06:28:26;2.97;;;1.45;;
19969;SDS011;10146;47.754;9.566;2023-11-21T06:30:52;2.78;;;1.40;;
19969;SDS011;10146;47.754;9.566;2023-11-21T06:33:18;4.43;;;1.40;;
19969;SDS011;10146;47.754;9.566;2023-11-21T06:35:44;2.88;;;1.33;;
19969;SDS011;10146;47.754;9.566;2023-11-21T06:38:10;2.80;;;1.10;;
19969;SDS011;10146;47.754;9.566;2023-11-21T06:40:35;2.72;;;1.02;;
19969;SDS011;10146;47.754;9.566;2023-11-21T06:43:01;3.80;;;1.50;;
19969;SDS011;10146;47.754;9.566;2023-11-21T06:45:27;4.38;;;1.40;;
19969;SDS011;10146;47.754;9.566;2023-11-21T06:47:52;2.90;;;1.25;;
19969;SDS011;10146;47.754;9.566;2023-11-21T06:50:18;3.58;;;1.42;;
19969;SDS011;10146;47.754;9.566;2023-11-21T06:52:44;4.93;;;2.00;;
19969;SDS011;10146;47.754;9.566;2023-11-21T06:55:10;4.22;;;1.98;;
19969;SDS011;10146;47.754;9.566;2023-11-21T06:57:35;4.85;;;3.38;;
19969;SDS011;10146;47.754;9.566;2023-11-21T07:00:02;9.70;;;6.93;;
19969;SDS011;10146;47.754;9.566;2023-11-21T07:02:28;13.32;;;7.88;;
19969;SDS011;10146;47.754;9.566;2023-11-21T07:04:54;9.00;;;6.20;;
19969;SDS011;10146;47.754;9.566;2023-11-21T07:07:19;7.05;;;4.88;;
19969;SDS011;10146;47.754;9.566;2023-11-21T07:09:45;8.68;;;6.20;;
19969;SDS011;10146;47.754;9.566;2023-11-21T07:12:11;6.18;;;2.95;;
19969;SDS011;10146;47.754;9.566;2023-11-21T07:14:37;4.45;;;2.10;;
19969;SDS011;10146;47.754;9.566;2023-11-21T07:17:04;6.03;;;2.10;;
19969;SDS011;10146;47.754;9.566;2023-11-21T07:19:30;4.15;;;1.60;;
19969;SDS011;10146;47.754;9.566;2023-11-21T07:21:55;5.55;;;1.50;;
19969;SDS011;10146;47.754;9.566;2023-11-21T07:24:21;4.05;;;1.75;;
19969;SDS011;10146;47.754;9.566;2023-11-21T07:26:48;2.13;;;1.58;;
19969;SDS011;10146;47.754;9.566;2023-11-21T07:29:13;3.50;;;1.60;;
19969;SDS011;10146;47.754;9.566;2023-11-21T07:31:39;6.60;;;1.50;;
19969;SDS011;10146;47.754;9.566;2023-11-21T07:34:06;2.92;;;1.40;;
19969;SDS011;10146;47.754;9.566;2023-11-21T07:36:33;5.90;;;1.42;;
19969;SDS011;10146;47.754;9.566;2023-11-21T07:38:59;2.92;;;1.40;;
19969;SDS011;10146;47.754;9.566;2023-11-21T07:41:25;5.22;;;1.70;;
19969;SDS011;10146;47.754;9.566;2023-11-21T07:43:50;3.25;;;1.27;;
19969;SDS011;10146;47.754;9.566;2023-11-21T07:46:16;6.90;;;1.50;;
19969;SDS011;10146;47.754;9.566;2023-11-21T07:48:42;3.03;;;1.67;;
19969;SDS011;10146;47.754;9.566;2023-11-21T07:51:09;3.53;;;1.77;;
19969;SDS011;10146;47.754;9.566;2023-11-21T07:53:35;4.47;;;1.73;;
19969;SDS011;10146;47.754;9.566;2023-11-21T07:56:04;3.47;;;1.42;;
19969;SDS011;10146;47.754;9.566;2023-11-21T07:58:31;4.07;;;1.60;;
19969;SDS011;10146;47.754;9.566;2023-11-21T08:00:58;4.38;;;1.75;;
19969;SDS011;10146;47.754;9.566;2023-11-21T08:03:24;4.28;;;1.48;;
19969;SDS011;10146;47.754;9.566;2023-11-21T08:05:51;2.40;;;1.20;;
19969;SDS011;10146;47.754;9.566;2023-11-21T08:08:17;2.70;;;1.13;;
19969;SDS011;10146;47.754;9.566;2023-11-21T08:10:43;4.15;;;1.58;;
19969;SDS011;10146;47.754;9.566;2023-11-21T08:13:13;2.75;;;1.13;;
19969;SDS011;10146;47.754;9.566;2023-11-21T08:15:42;2.88;;;1.42;;
19969;SDS011;10146;47.754;9.566;2023-11-21T08:18:11;4.07;;;1.20;;
19969;SDS011;10146;47.754;9.566;2023-11-21T08:20:37;3.35;;;1.30;;
19969;SDS011;10146;47.754;9.566;2023-11-21T08:23:04;5.38;;;1.58;;
19969;SDS011;10146;47.754;9.566;2023-11-21T08:25:31;2.10;;;1.40;;
19969;SDS011;10146;47.754;9.566;2023-11-21T08:27:59;5.13;;;1.33;;
19969;SDS011;10146;47.754;9.566;2023-11-21T08:30:26;4.43;;;1.67;;
19969;SDS011;10146;47.754;9.566;2023-11-21T08:32:54;4.43;;;1.65;;
19969;SDS011;10146;47.754;9.566;2023-11-21T08:35:23;3.05;;;1.50;;
19969;SDS011;10146;47.754;9.566;2023-11-21T08:37:51;5.00;;;1.98;;
19969;SDS011;10146;47.754;9.566;2023-11-21T08:40:18;3.70;;;2.30;;
19969;SDS011;10146;47.754;9.566;2023-11-21T08:42:44;3.60;;;1.95;;
19969;SDS011;10146;47.754;9.566;2023-11-21T08:45:10;3.78;;;1.83;;
19969;SDS011;10146;47.754;9.566;2023-11-21T08:47:37;3.75;;;1.40;;
19969;SDS011;10146;47.754;9.566;2023-11-21T08:50:04;2.92;;;1.60;;
19969;SDS011;10146;47.754;9.566;2023-11-21T08:52:32;4.03;;;1.63;;
19969;SDS011;10146;47.754;9.566;2023-11-21T08:54:58;2.42;;;1.50;;
19969;SDS011;10146;47.754;9.566;2023-11-21T08:57:27;3.42;;;1.70;;
19969;SDS011;10146;47.754;9.566;2023-11-21T08:59:53;3.25;;;1.65;;
19969;SDS011;10146;47.754;9.566;2023-11-21T09:02:25;4.40;;;1.88;;
19969;SDS011;10146;47.754;9.566;2023-11-21T09:04:51;5.05;;;1.90;;
19969;SDS011;10146;47.754;9.566;2023-11-21T09:07:18;3.95;;;1.77;;
19969;SDS011;10146;47.754;9.566;2023-11-21T09:09:45;3.92;;;1.90;;
19969;SDS011;10146;47.754;9.566;2023-11-21T09:12:11;4.18;;;1.80;;
19969;SDS011;10146;47.754;9.566;2023-11-21T09:14:37;3.80;;;1.80;;
19969;SDS011;10146;47.754;9.566;2023-11-21T09:17:04;4.10;;;1.90;;
19969;SDS011;10146;47.754;9.566;2023-11-21T09:19:35;3.75;;;1.60;;
19969;SDS011;10146;47.754;9.566;2023-11-21T09:22:04;3.60;;;1.52;;
19969;SDS011;10146;47.754;9.566;2023-11-21T09:24:30;3.85;;;1.90;;
19969;SDS011;10146;47.754;9.566;2023-11-21T09:26:57;3.00;;;1.70;;
19969;SDS011;10146;47.754;9.566;2023-11-21T09:29:22;2.50;;;1.50;;
19969;SDS011;10146;47.754;9.566;2023-11-21T09:31:48;4.82;;;1.55;;
19969;SDS011;10146;47.754;9.566;2023-11-21T09:34:16;4.40;;;1.50;;
19969;SDS011;10146;47.754;9.566;2023-11-21T09:36:44;2.72;;;1.55;;
19969;SDS011;10146;47.754;9.566;2023-11-21T09:39:10;3.35;;;1.50;;
19969;SDS011;10146;47.754;9.566;2023-11-21T09:41:49;1.85;;;1.50;;
19969;SDS011;10146;47.754;9.566;2023-11-21T09:44:22;4.40;;;1.80;;
19969;SDS011;10146;47.754;9.566;2023-11-21T09:46:53;3.50;;;1.67;;
19969;SDS011;10146;47.754;9.566;2023-11-21T09:49:21;4.10;;;1.60;;
19969;SDS011;10146;47.754;9.566;2023-11-21T09:51:53;4.05;;;1.55;;
19969;SDS011;10146;47.754;9.566;2023-11-21T09:54:22;3.80;;;1.52;;
19969;SDS011;10146;47.754;9.566;2023-11-21T09:56:48;2.88;;;1.50;;
19969;SDS011;10146;47.754;9.566;2023-11-21T09:59:15;3.28;;;1.38;;
19969;SDS011;10146;47.754;9.566;2023-11-21T10:01:41;3.17;;;1.42;;
19969;SDS011;10146;47.754;9.566;2023-11-21T10:04:08;4.35;;;1.92;;
19969;SDS011;10146;47.754;9.566;2023-11-21T10:06:39;2.92;;;1.50;;
19969;SDS011;10146;47.754;9.566;2023-11-21T10:09:11;2.92;;;1.50;;
19969;SDS011;10146;47.754;9.566;2023-11-21T10:11:42;4.72;;;1.80;;
19969;SDS011;10146;47.754;9.566;2023-11-21T10:14:12;2.83;;;1.30;;
19969;SDS011;10146;47.754;9.566;2023-11-21T10:16:39;3.50;;;1.70;;
19969;SDS011;10146;47.754;9.566;2023-11-21T10:19:06;4.47;;;1.67;;
19969;SDS011;10146;47.754;9.566;2023-11-21T10:21:35;2.75;;;1.30;;
19969;SDS011;10146;47.754;9.566;2023-11-21T10:24:02;2.72;;;1.27;;
19969;SDS011;10146;47.754;9.566;2023-11-21T10:26:28;3.63;;;1.50;;
19969;SDS011;10146;47.754;9.566;2023-11-21T10:28:59;2.42;;;1.45;;
19969;SDS011;10146;47.754;9.566;2023-11-21T10:31:30;4.47;;;1.30;;
19969;SDS011;10146;47.754;9.566;2023-11-21T10:34:38;2.75;;;1.27;;
19969;SDS011;10146;47.754;9.566;2023-11-21T10:36:45;3.22;;;1.65;;
19969;SDS011;10146;47.754;9.566;2023-11-21T10:39:18;2.15;;;1.20;;
19969;SDS011;10146;47.754;9.566;2023-11-21T10:41:48;2.50;;;1.40;;
19969;SDS011;10146;47.754;9.566;2023-11-21T10:44:16;2.55;;;1.40;;
19969;SDS011;10146;47.754;9.566;2023-11-21T10:46:48;4.55;;;1.75;;
19969;SDS011;10146;47.754;9.566;2023-11-21T10:49:22;3.28;;;1.23;;
19969;SDS011;10146;47.754;9.566;2023-11-21T10:51:53;2.38;;;1.55;;
19969;SDS011;10146;47.754;9.566;2023-11-21T10:54:25;2.97;;;1.27;;
19969;SDS011;10146;47.754;9.566;2023-11-21T10:56:56;13.57;;;12.48;;
19969;SDS011;10146;47.754;9.566;2023-11-21T10:59:24;10.63;;;9.52;;
19969;SDS011;10146;47.754;9.566;2023-11-21T11:01:54;15.95;;;14.55;;
19969;SDS011;10146;47.754;9.566;2023-11-21T11:04:22;2.92;;;1.38;;
19969;SDS011;10146;47.754;9.566;2023-11-21T11:06:51;18.92;;;13.98;;
19969;SDS011;10146;47.754;9.566;2023-11-21T11:09:19;3.03;;;2.50;;
19969;SDS011;10146;47.754;9.566;2023-11-21T11:11:46;3.45;;;1.30;;
19969;SDS011;10146;47.754;9.566;2023-11-21T11:14:12;2.30;;;1.00;;
19969;SDS011;10146;47.754;9.566;2023-11-21T11:16:39;1.50;;;0.77;;
19969;SDS011;10146;47.754;9.566;2023-11-21T11:19:11;2.00;;;1.30;;
19969;SDS011;10146;47.754;9.566;2023-11-21T11:27:34;1.27;;;0.80;;
19969;SDS011;10146;47.754;9.566;2023-11-21T11:32:51;3.22;;;1.08;;
19969;SDS011;10146;47.754;9.566;2023-11-21T11:35:38;2.08;;;0.80;;
19969;SDS011;10146;47.754;9.566;2023-11-21T11:38:32;1.75;;;0.90;;
19969;SDS011;10146;47.754;9.566;2023-11-21T11:41:03;1.95;;;0.60;;
19969;SDS011;10146;47.754;9.566;2023-11-21T11:43:30;1.70;;;1.00;;
19969;SDS011;10146;47.754;9.566;2023-11-21T11:45:58;1.25;;;0.80;;
19969;SDS011;10146;47.754;9.566;2023-11-21T11:48:24;1.23;;;0.60;;
19969;SDS011;10146;47.754;9.566;2023-11-21T11:53:38;0.65;;;0.65;;
19969;SDS011;10146;47.754;9.566;2023-11-21T11:58:58;0.70;;;0.70;;
19969;SDS011;10146;47.754;9.566;2023-11-21T12:01:27;1.83;;;0.68;;
19969;SDS011;10146;47.754;9.566;2023-11-21T12:07:00;2.15;;;1.08;;
19969;SDS011;10146;47.754;9.566;2023-11-21T12:09:32;1.25;;;0.75;;
19969;SDS011;10146;47.754;9.566;2023-11-21T12:11:58;3.42;;;0.80;;
19969;SDS011;10146;47.754;9.566;2023-11-21T12:14:24;1.98;;;0.80;;
19969;SDS011;10146;47.754;9.566;2023-11-21T12:16:49;2.13;;;0.98;;
19969;SDS011;10146;47.754;9.566;2023-11-21T12:19:16;2.90;;;0.80;;
19969;SDS011;10146;47.754;9.566;2023-11-21T12:21:43;0.95;;;0.70;;
19969;SDS011;10146;47.754;9.566;2023-11-21T12:24:13;1.13;;;0.77;;
19969;SDS011;10146;47.754;9.566;2023-11-21T12:26:39;1.75;;;0.80;;
19969;SDS011;10146;47.754;9.566;2023-11-21T12:29:05;2.17;;;0.93;;
19969;SDS011;10146;47.754;9.566;2023-11-21T12:31:32;2.25;;;1.08;;
19969;SDS011;10146;47.754;9.566;2023-11-21T12:33:59;1.30;;;0.90;;
19969;SDS011;10146;47.754;9.566;2023-11-21T12:36:25;2.13;;;0.90;;
19969;SDS011;10146;47.754;9.566;2023-11-21T12:38:51;2.67;;;0.90;;
19969;SDS011;10146;47.754;9.566;2023-11-21T12:41:17;2.10;;;0.80;;
19969;SDS011;10146;47.754;9.566;2023-11-21T12:43:42;1.30;;;0.77;;
19969;SDS011;10146;47.754;9.566;2023-11-21T12:46:09;2.60;;;0.90;;
19969;SDS011;10146;47.754;9.566;2023-11-21T12:48:41;1.30;;;1.10;;
19969;SDS011;10146;47.754;9.566;2023-11-21T12:51:08;1.20;;;0.82;;
19969;SDS011;10146;47.754;9.566;2023-11-21T12:53:35;1.50;;;1.05;;
19969;SDS011;10146;47.754;9.566;2023-11-21T12:56:12;1.65;;;1.30;;
19969;SDS011;10146;47.754;9.566;2023-11-21T12:58:40;1.88;;;1.30;;
19969;SDS011;10146;47.754;9.566;2023-11-21T13:01:12;1.10;;;1.10;;
19969;SDS011;10146;47.754;9.566;2023-11-21T13:03:43;1.92;;;1.30;;
19969;SDS011;10146;47.754;9.566;2023-11-21T13:06:13;2.10;;;1.10;;
19969;SDS011;10146;47.754;9.566;2023-11-21T13:08:41;1.65;;;1.27;;
19969;SDS011;10146;47.754;9.566;2023-11-21T13:11:10;3.10;;;1.42;;
19969;SDS011;10146;47.754;9.566;2023-11-21T13:13:39;1.67;;;1.58;;
19969;SDS011;10146;47.754;9.566;2023-11-21T13:16:07;1.50;;;1.40;;
19969;SDS011;10146;47.754;9.566;2023-11-21T13:18:34;1.75;;;1.65;;
19969;SDS011;10146;47.754;9.566;2023-11-21T13:21:08;3.40;;;1.70;;
19969;SDS011;10146;47.754;9.566;2023-11-21T13:23:38;2.85;;;1.70;;
19969;SDS011;10146;47.754;9.566;2023-11-21T13:26:07;1.83;;;0.82;;
19969;SDS011;10146;47.754;9.566;2023-11-21T13:28:34;1.60;;;0.98;;
19969;SDS011;10146;47.754;9.566;2023-11-21T13:31:01;3.95;;;1.25;;
19969;SDS011;10146;47.754;9.566;2023-11-21T13:33:33;2.55;;;1.15;;
19969;SDS011;10146;47.754;9.566;2023-11-21T13:36:02;1.00;;;1.00;;
19969;SDS011;10146;47.754;9.566;2023-11-21T13:38:32;1.17;;;1.00;;
19969;SDS011;10146;47.754;9.566;2023-11-21T13:41:00;0.90;;;0.90;;
19969;SDS011;10146;47.754;9.566;2023-11-21T13:43:26;1.30;;;1.20;;
19969;SDS011;10146;47.754;9.566;2023-11-21T13:45:54;0.80;;;0.70;;
19969;SDS011;10146;47.754;9.566;2023-11-21T13:48:33;1.10;;;0.77;;
19969;SDS011;10146;47.754;9.566;2023-11-21T13:51:13;3.58;;;2.78;;
19969;SDS011;10146;47.754;9.566;2023-11-21T13:53:51;1.85;;;1.50;;
19969;SDS011;10146;47.754;9.566;2023-11-21T13:56:18;0.93;;;0.60;;
19969;SDS011;10146;47.754;9.566;2023-11-21T13:58:51;1.83;;;0.77;;
19969;SDS011;10146;47.754;9.566;2023-11-21T14:01:19;0.98;;;0.60;;
19969;SDS011;10146;47.754;9.566;2023-11-21T14:03:56;1.00;;;0.50;;
19969;SDS011;10146;47.754;9.566;2023-11-21T14:06:38;1.35;;;0.30;;
19969;SDS011;10146;47.754;9.566;2023-11-21T14:09:13;0.70;;;0.32;;
19969;SDS011;10146;47.754;9.566;2023-11-21T14:11:53;0.38;;;0.30;;
19969;SDS011;10146;47.754;9.566;2023-11-21T14:14:24;0.57;;;0.40;;
19969;SDS011;10146;47.754;9.566;2023-11-21T14:16:53;2.38;;;0.40;;
19969;SDS011;10146;47.754;9.566;2023-11-21T14:19:20;0.40;;;0.40;;
19969;SDS011;10146;47.754;9.566;2023-11-21T14:21:47;0.75;;;0.50;;
19969;SDS011;10146;47.754;9.566;2023-11-21T14:24:15;1.27;;;0.60;;
19969;SDS011;10146;47.754;9.566;2023-11-21T14:26:44;0.60;;;0.38;;
19969;SDS011;10146;47.754;9.566;2023-11-21T14:29:11;1.05;;;0.30;;
19969;SDS011;10146;47.754;9.566;2023-11-21T14:31:39;0.90;;;0.50;;
19969;SDS011;10146;47.754;9.566;2023-11-21T14:34:06;0.63;;;0.40;;
19969;SDS011;10146;47.754;9.566;2023-11-21T14:36:32;1.23;;;0.60;;
19969;SDS011;10146;47.754;9.566;2023-11-21T14:38:58;2.72;;;2.50;;
19969;SDS011;10146;47.754;9.566;2023-11-21T14:41:24;0.70;;;0.70;;
19969;SDS011;10146;47.754;9.566;2023-11-21T14:43:50;0.80;;;0.60;;
19969;SDS011;10146;47.754;9.566;2023-11-21T14:46:16;2.80;;;0.73;;
19969;SDS011;10146;47.754;9.566;2023-11-21T14:48:44;0.40;;;0.40;;
19969;SDS011;10146;47.754;9.566;2023-11-21T14:51:24;1.15;;;0.63;;
19969;SDS011;10146;47.754;9.566;2023-11-21T14:53:59;1.10;;;1.02;;
19969;SDS011;10146;47.754;9.566;2023-11-21T14:56:34;1.10;;;0.82;;
19969;SDS011;10146;47.754;9.566;2023-11-21T14:59:02;2.08;;;0.80;;
19969;SDS011;10146;47.754;9.566;2023-11-21T15:01:41;1.92;;;1.75;;
19969;SDS011;10146;47.754;9.566;2023-11-21T15:04:20;4.10;;;1.45;;
19969;SDS011;10146;47.754;9.566;2023-11-21T15:07:05;2.20;;;1.80;;